createdAt,value
2022-08-26T00:00:49.067Z,98351.50
2022-08-26T00:01:54.857Z,98350.69
2022-08-26T00:03:00.072Z,98348.88
2022-08-26T00:04:05.621Z,98347.88
2022-08-26T00:05:28.967Z,98354.00
2022-08-26T00:06:35.359Z,98346.09
2022-08-26T00:07:41.293Z,98342.16
2022-08-26T00:08:47.088Z,98340.53
2022-08-26T00:09:54.440Z,98343.16
2022-08-26T00:10:59.911Z,98339.69
2022-08-26T00:12:05.778Z,98343.50
2022-08-26T00:13:10.623Z,98340.19
2022-08-26T00:14:15.896Z,98343.19
2022-08-26T00:16:11.258Z,98341.88
2022-08-26T00:17:15.456Z,98338.97
2022-08-26T00:18:22.785Z,98336.50
2022-08-26T00:19:26.783Z,98342.13
2022-08-26T00:20:34.492Z,98338.03
2022-08-26T00:21:39.209Z,98345.47
2022-08-26T00:22:44.078Z,98344.66
2022-08-26T00:23:47.803Z,98343.03
2022-08-26T00:24:54.796Z,98345.84
2022-08-26T00:27:44.557Z,98342.72
2022-08-26T00:28:50.178Z,98337.81
2022-08-26T00:29:55.340Z,98347.38
2022-08-26T00:31:07.467Z,98337.81
2022-08-26T00:32:15.814Z,98345.06
2022-08-26T00:33:21.552Z,98346.06
2022-08-26T00:34:29.838Z,98345.88
2022-08-26T00:35:34.266Z,98348.88
2022-08-26T00:36:41.438Z,98347.06
2022-08-26T00:39:23.551Z,98341.50
2022-08-26T00:41:08.557Z,98346.13
2022-08-26T00:42:14.186Z,98338.28
2022-08-26T00:43:21.777Z,98341.06
2022-08-26T00:44:25.980Z,98339.25
2022-08-26T00:45:46.136Z,98336.47
2022-08-26T00:46:52.810Z,98342.88
2022-08-26T00:48:02.487Z,98340.06
2022-08-26T00:49:13.308Z,98334.97
2022-08-26T00:50:50.840Z,98340.25
2022-08-26T00:51:56.127Z,98344.69
2022-08-26T00:53:02.632Z,98336.97
2022-08-26T00:54:17.249Z,98333.06
2022-08-26T00:55:24.517Z,98337.69
2022-08-26T00:56:37.950Z,98330.75
2022-08-26T00:57:42.682Z,98331.13
2022-08-26T00:58:50.305Z,98333.94
2022-08-26T00:59:58.751Z,98331.63
2022-08-26T01:01:03.058Z,98341.53
2022-08-26T01:02:08.316Z,98335.59
2022-08-26T01:03:26.567Z,98334.78
2022-08-26T01:04:36.911Z,98344.50
2022-08-26T01:05:41.560Z,98339.41
2022-08-26T01:06:47.154Z,98340.38
2022-08-26T01:08:37.157Z,98340.75
2022-08-26T01:09:41.528Z,98347.53
2022-08-26T01:10:47.827Z,98339.31
2022-08-26T01:11:59.705Z,98340.47
2022-08-26T01:13:07.592Z,98340.00
2022-08-26T01:14:16.218Z,98342.97
2022-08-26T01:15:50.128Z,98335.41
2022-08-26T01:16:55.006Z,98338.53
2022-08-26T01:18:20.523Z,98338.88
2022-08-26T01:19:32.287Z,98343.31
2022-08-26T01:20:49.455Z,98345.13
2022-08-26T01:22:07.820Z,98336.44
2022-08-26T01:26:23.468Z,98340.06
2022-08-26T01:26:30.941Z,98346.28
2022-08-26T01:27:32.413Z,98339.41
2022-08-26T01:29:12.227Z,98342.88
2022-08-26T01:30:19.570Z,98342.88
2022-08-26T01:31:49.777Z,98344.66
2022-08-26T01:32:57.269Z,98349.28
2022-08-26T01:34:05.203Z,98341.41
2022-08-26T01:35:19.170Z,98343.03
2022-08-26T01:36:23.236Z,98341.22
2022-08-26T01:37:31.407Z,98343.22
2022-08-26T01:38:36.688Z,98344.19
2022-08-26T01:39:41.326Z,98340.91
2022-08-26T01:40:46.175Z,98348.16
2022-08-26T01:41:58.387Z,98346.53
2022-08-26T01:43:15.040Z,98342.41
2022-08-26T01:44:22.106Z,98346.84
2022-08-26T01:45:27.781Z,98336.00
2022-08-26T01:46:33.431Z,98350.16
2022-08-26T01:47:37.570Z,98345.22
2022-08-26T01:48:43.388Z,98350.47
2022-08-26T01:49:49.200Z,98343.59
2022-08-26T01:50:55.768Z,98342.75
2022-08-26T01:52:00.029Z,98339.97
2022-08-26T01:53:08.774Z,98343.25
2022-08-26T01:54:15.976Z,98341.28
2022-08-26T01:55:32.356Z,98333.19
2022-08-26T01:56:37.233Z,98332.88
2022-08-26T01:57:45.303Z,98325.47
2022-08-26T01:58:53.577Z,98333.81
2022-08-26T02:00:25.024Z,98325.94
2022-08-26T02:01:32.199Z,98333.00
2022-08-26T02:02:37.337Z,98323.66
2022-08-26T02:03:50.832Z,98323.66
2022-08-26T02:05:00.513Z,98326.47
2022-08-26T02:06:09.375Z,98325.81
2022-08-26T02:07:15.177Z,98321.53
2022-08-26T02:08:26.818Z,98328.78
2022-08-26T02:09:33.319Z,98327.13
2022-08-26T02:10:45.087Z,98326.47
2022-08-26T02:11:51.029Z,98324.19
2022-08-26T02:12:54.989Z,98329.63
2022-08-26T02:14:03.196Z,98330.59
2022-08-26T02:15:11.126Z,98332.25
2022-08-26T02:16:18.207Z,98330.59
2022-08-26T02:17:25.251Z,98328.97
2022-08-26T02:18:31.517Z,98327.66
2022-08-26T02:19:38.349Z,98331.59
2022-08-26T02:20:43.518Z,98327.53
2022-08-26T02:21:51.313Z,98322.59
2022-08-26T02:22:56.954Z,98318.31
2022-08-26T02:24:10.260Z,98329.66
2022-08-26T02:25:21.747Z,98325.22
2022-08-26T02:26:30.517Z,98328.84
2022-08-26T02:27:35.706Z,98327.34
2022-08-26T02:28:45.138Z,98324.25
2022-08-26T02:29:55.697Z,98315.53
2022-08-26T02:31:02.531Z,98318.19
2022-08-26T02:34:20.743Z,98315.06
2022-08-26T02:35:24.799Z,98318.69
2022-08-26T02:36:29.767Z,98321.94
2022-08-26T02:37:53.900Z,98316.69
2022-08-26T02:38:57.787Z,98318.31
2022-08-26T02:40:03.238Z,98318.31
2022-08-26T02:41:09.061Z,98315.69
2022-08-26T02:42:15.342Z,98314.69
2022-08-26T02:43:19.229Z,98311.44
2022-08-26T02:44:36.769Z,98314.88
2022-08-26T02:45:41.566Z,98321.13
2022-08-26T02:46:47.074Z,98321.31
2022-08-26T02:47:54.907Z,98308.47
2022-08-26T02:49:41.050Z,98314.91
2022-08-26T02:50:48.258Z,98318.50
2022-08-26T02:51:54.056Z,98313.41
2022-08-26T02:52:58.217Z,98314.22
2022-08-26T02:54:04.750Z,98313.41
2022-08-26T02:55:09.518Z,98309.31
2022-08-26T02:56:16.331Z,98307.34
2022-08-26T02:57:21.008Z,98319.84
2022-08-26T02:58:27.752Z,98306.88
2022-08-26T02:59:39.288Z,98317.38
2022-08-26T03:00:53.130Z,98311.44
2022-08-26T03:01:57.360Z,98318.53
2022-08-26T03:03:01.997Z,98313.25
2022-08-26T03:04:07.489Z,98306.38
2022-08-26T03:05:14.877Z,98311.13
2022-08-26T03:06:19.857Z,98317.19
2022-08-26T03:07:24.982Z,98310.31
2022-08-26T03:08:28.545Z,98315.41
2022-08-26T03:09:33.838Z,98316.25
2022-08-26T03:10:37.686Z,98311.94
2022-08-26T03:11:43.900Z,98311.13
2022-08-26T03:12:49.080Z,98318.06
2022-08-26T03:13:56.010Z,98304.75
2022-08-26T03:15:00.659Z,98316.25
2022-08-26T03:16:05.219Z,98313.63
2022-08-26T03:18:31.059Z,98308.69
2022-08-26T03:19:35.607Z,98312.28
2022-08-26T03:20:39.119Z,98308.03
2022-08-26T03:21:47.445Z,98315.91
2022-08-26T03:22:53.653Z,98313.44
2022-08-26T03:24:00.334Z,98302.91
2022-08-26T03:25:06.410Z,98308.16
2022-08-26T03:26:11.120Z,98304.72
2022-08-26T03:27:17.419Z,98309.34
2022-08-26T03:28:21.023Z,98311.97
2022-08-26T03:29:52.013Z,98309.34
2022-08-26T03:30:58.353Z,98314.09
2022-08-26T03:32:04.360Z,98304.75
2022-08-26T03:33:11.600Z,98311.13
2022-08-26T03:34:22.957Z,98308.84
2022-08-26T03:35:27.498Z,98306.22
2022-08-26T03:36:35.213Z,98307.03
2022-08-26T03:37:42.663Z,98305.53
2022-08-26T03:38:47.267Z,98302.91
2022-08-26T03:39:57.722Z,98302.91
2022-08-26T03:41:02.000Z,98306.50
2022-08-26T03:42:07.799Z,98305.69
2022-08-26T03:43:14.217Z,98303.88
2022-08-26T03:44:18.875Z,98304.88
2022-08-26T03:45:23.076Z,98300.63
2022-08-26T03:46:27.957Z,98299.63
2022-08-26T03:47:32.160Z,98303.88
2022-08-26T03:48:39.138Z,98301.25
2022-08-26T03:49:42.586Z,98300.44
2022-08-26T03:50:47.641Z,98304.19
2022-08-26T03:51:52.320Z,98302.75
2022-08-26T03:52:57.369Z,98309.97
2022-08-26T03:54:03.151Z,98304.88
2022-08-26T03:55:09.088Z,98306.84
2022-08-26T03:56:13.142Z,98305.22
2022-08-26T03:57:23.653Z,98306.34
2022-08-26T03:58:28.437Z,98304.06
2022-08-26T03:59:32.966Z,98308.47
2022-08-26T04:00:36.879Z,98305.84
2022-08-26T04:01:41.174Z,98301.25
2022-08-26T04:02:46.532Z,98303.72
2022-08-26T04:04:01.822Z,98302.59
2022-08-26T04:05:08.562Z,98307.03
2022-08-26T04:06:13.986Z,98293.88
2022-08-26T04:07:19.466Z,98301.59
2022-08-26T04:08:24.037Z,98299.59
2022-08-26T04:09:35.086Z,98300.28
2022-08-26T04:10:40.238Z,98301.94
2022-08-26T04:11:50.418Z,98288.63
2022-08-26T04:12:55.927Z,98303.38
2022-08-26T04:14:07.072Z,98303.56
2022-08-26T04:15:15.531Z,98299.94
2022-08-26T04:16:22.561Z,98300.13
2022-08-26T04:17:27.825Z,98301.56
2022-08-26T04:18:36.989Z,98302.09
2022-08-26T04:19:42.130Z,98302.78
2022-08-26T04:20:49.632Z,98296.38
2022-08-26T04:21:55.334Z,98297.84
2022-08-26T04:23:00.218Z,98295.06
2022-08-26T04:24:04.914Z,98295.69
2022-08-26T04:25:11.057Z,98296.19
2022-08-26T04:26:14.916Z,98297.66
2022-08-26T04:27:19.858Z,98297.66
2022-08-26T04:28:26.726Z,98294.91
2022-08-26T04:29:33.793Z,98299.66
2022-08-26T04:30:38.866Z,98293.41
2022-08-26T04:31:46.104Z,98293.06
2022-08-26T04:32:50.264Z,98293.56
2022-08-26T04:33:56.557Z,98293.88
2022-08-26T04:35:06.189Z,98295.19
2022-08-26T04:36:10.129Z,98295.50
2022-08-26T04:38:24.629Z,98291.22
2022-08-26T04:39:29.803Z,98292.69
2022-08-26T04:40:33.717Z,98294.97
2022-08-26T04:41:40.618Z,98285.13
2022-08-26T04:42:44.828Z,98289.03
2022-08-26T04:43:50.766Z,98292.81
2022-08-26T04:45:05.700Z,98298.56
2022-08-26T04:46:15.076Z,98289.66
2022-08-26T04:47:20.907Z,98295.41
2022-08-26T04:48:24.872Z,98297.88
2022-08-26T04:49:35.371Z,98298.19
2022-08-26T04:50:49.443Z,98291.59
2022-08-26T04:51:54.658Z,98292.91
2022-08-26T04:53:00.990Z,98295.84
2022-08-26T04:54:07.345Z,98293.53
2022-08-26T04:55:11.158Z,98299.91
2022-08-26T04:56:16.979Z,98301.84
2022-08-26T04:57:23.678Z,98298.56
2022-08-26T04:58:28.120Z,98294.41
2022-08-26T04:59:38.454Z,98297.34
2022-08-26T05:00:46.409Z,98294.88
2022-08-26T05:01:54.487Z,98293.34
2022-08-26T05:02:58.812Z,98296.91
2022-08-26T05:04:05.041Z,98292.75
2022-08-26T05:05:14.416Z,98292.91
2022-08-26T05:06:23.273Z,98285.13
2022-08-26T05:07:27.153Z,98292.13
2022-08-26T05:08:32.114Z,98291.44
2022-08-26T05:09:35.898Z,98283.66
2022-08-26T05:10:43.875Z,98288.03
2022-08-26T05:11:48.546Z,98289.94
2022-08-26T05:13:00.412Z,98294.34
2022-08-26T05:14:03.872Z,98290.81
2022-08-26T05:15:29.069Z,98298.03
2022-08-26T05:16:35.317Z,98290.25
2022-08-26T05:18:59.149Z,98292.38
2022-08-26T05:20:03.706Z,98293.88
2022-08-26T05:21:09.366Z,98297.28
2022-08-26T05:22:13.669Z,98289.28
2022-08-26T05:23:18.709Z,98288.81
2022-08-26T05:24:24.612Z,98295.09
2022-08-26T05:25:28.107Z,98295.84
2022-08-26T05:26:33.777Z,98285.97
2022-08-26T05:27:36.969Z,98287.97
2022-08-26T05:28:41.657Z,98288.81
2022-08-26T05:29:46.238Z,98285.78
2022-08-26T05:30:51.639Z,98280.75
2022-08-26T05:31:57.791Z,98281.75
2022-08-26T05:33:02.237Z,98285.56
2022-08-26T05:34:08.472Z,98286.06
2022-08-26T05:35:13.466Z,98289.47
2022-08-26T05:36:21.376Z,98293.19
2022-08-26T05:37:25.915Z,98293.69
2022-08-26T05:38:30.565Z,98281.84
2022-08-26T05:39:34.227Z,98289.66
2022-08-26T05:40:41.072Z,98290.66
2022-08-26T05:41:45.367Z,98285.56
2022-08-26T05:42:49.537Z,98286.34
2022-08-26T05:43:54.081Z,98283.84
2022-08-26T05:44:59.019Z,98288.28
2022-08-26T05:46:07.287Z,98285.53
2022-08-26T05:47:13.448Z,98287.06
2022-08-26T05:48:17.780Z,98284.75
2022-08-26T05:49:22.603Z,98286.50
2022-08-26T05:50:29.559Z,98287.00
2022-08-26T05:51:34.210Z,98291.41
2022-08-26T05:52:46.912Z,98288.19
2022-08-26T05:53:54.392Z,98291.16
2022-08-26T05:54:58.298Z,98287.31
2022-08-26T05:56:02.801Z,98294.59
2022-08-26T05:57:06.423Z,98283.81
2022-08-26T05:58:10.970Z,98280.97
2022-08-26T05:59:16.532Z,98285.13
2022-08-26T06:00:25.299Z,98282.75
2022-08-26T06:01:30.439Z,98280.38
2022-08-26T06:02:35.263Z,98280.22
2022-08-26T06:03:42.400Z,98279.81
2022-08-26T06:04:45.812Z,98281.59
2022-08-26T06:05:50.384Z,98279.91
2022-08-26T06:06:55.210Z,98276.25
2022-08-26T06:08:13.424Z,98277.41
2022-08-26T06:09:18.305Z,98274.50
2022-08-26T06:10:32.047Z,98277.09
2022-08-26T06:11:37.029Z,98267.88
2022-08-26T06:12:40.398Z,98272.91
2022-08-26T06:13:46.087Z,98269.66
2022-08-26T06:14:49.819Z,98266.97
2022-08-26T06:15:55.353Z,98267.19
2022-08-26T06:17:01.229Z,98264.72
2022-08-26T06:18:07.038Z,98267.94
2022-08-26T06:19:13.211Z,98269.97
2022-08-26T06:20:17.081Z,98265.44
2022-08-26T06:21:24.368Z,98272.25
2022-08-26T06:22:46.200Z,98266.78
2022-08-26T06:24:08.925Z,98266.03
2022-08-26T06:25:30.806Z,98268.91
2022-08-26T06:26:50.465Z,98274.22
2022-08-26T06:27:54.298Z,98272.75
2022-08-26T06:28:59.049Z,98270.22
2022-08-26T06:30:02.271Z,98269.63
2022-08-26T06:31:07.924Z,98274.34
2022-08-26T06:32:11.896Z,98281.97
2022-08-26T06:33:17.996Z,98278.38
2022-08-26T06:34:21.605Z,98286.56
2022-08-26T06:35:26.028Z,98271.72
2022-08-26T06:36:32.489Z,98283.31
2022-08-26T06:37:36.450Z,98279.94
2022-08-26T06:38:42.074Z,98282.75
2022-08-26T06:39:45.161Z,98289.06
2022-08-26T06:40:50.993Z,98283.19
2022-08-26T06:41:54.766Z,98278.69
2022-08-26T06:43:05.369Z,98288.19
2022-08-26T06:44:10.227Z,98280.81
2022-08-26T06:45:14.352Z,98280.69
2022-08-26T06:46:27.744Z,98285.63
2022-08-26T06:47:31.520Z,98282.00
2022-08-26T06:48:40.837Z,98286.16
2022-08-26T06:49:47.237Z,98280.59
2022-08-26T06:50:52.589Z,98283.28
2022-08-26T06:52:00.378Z,98281.44
2022-08-26T06:53:05.478Z,98281.50
2022-08-26T06:54:09.528Z,98293.41
2022-08-26T06:55:14.614Z,98285.97
2022-08-26T06:56:21.117Z,98291.69
2022-08-26T06:57:25.976Z,98287.97
2022-08-26T06:58:29.493Z,98288.06
2022-08-26T06:59:37.296Z,98282.44
2022-08-26T07:00:41.708Z,98286.28
2022-08-26T07:01:52.578Z,98283.66
2022-08-26T07:02:56.993Z,98281.59
2022-08-26T07:04:05.597Z,98276.28
2022-08-26T07:05:13.846Z,98283.03
2022-08-26T07:06:19.849Z,98280.66
2022-08-26T07:07:24.549Z,98278.84
2022-08-26T07:08:28.219Z,98286.44
2022-08-26T07:09:37.716Z,98287.03
2022-08-26T07:10:41.130Z,98285.72
2022-08-26T07:11:46.340Z,98283.34
2022-08-26T07:12:50.791Z,98285.25
2022-08-26T07:13:54.488Z,98283.13
2022-08-26T07:14:58.921Z,98284.75
2022-08-26T07:16:04.217Z,98283.44
2022-08-26T07:17:13.728Z,98285.63
2022-08-26T07:18:17.597Z,98286.72
2022-08-26T07:19:30.964Z,98282.94
2022-08-26T07:20:39.386Z,98280.53
2022-08-26T07:21:49.507Z,98287.53
2022-08-26T07:23:22.095Z,98287.22
2022-08-26T07:24:29.116Z,98289.13
2022-08-26T07:25:33.549Z,98280.78
2022-08-26T07:26:36.824Z,98283.22
2022-08-26T07:27:42.352Z,98285.09
2022-08-26T07:28:47.028Z,98278.38
2022-08-26T07:29:51.614Z,98283.50
2022-08-26T07:30:54.761Z,98277.56
2022-08-26T07:31:59.956Z,98277.28
2022-08-26T07:33:04.417Z,98277.59
2022-08-26T07:34:09.548Z,98286.47
2022-08-26T07:35:15.969Z,98283.22
2022-08-26T07:36:22.047Z,98284.03
2022-08-26T07:37:26.655Z,98286.97
2022-08-26T07:38:33.995Z,98281.03
2022-08-26T07:39:43.180Z,98289.09
2022-08-26T07:40:48.348Z,98283.16
2022-08-26T07:41:56.097Z,98282.38
2022-08-26T07:43:05.977Z,98285.31
2022-08-26T07:44:09.331Z,98281.56
2022-08-26T07:45:14.666Z,98283.19
2022-08-26T07:46:26.928Z,98283.19
2022-08-26T07:47:32.209Z,98286.38
2022-08-26T07:48:36.405Z,98279.06
2022-08-26T07:49:42.202Z,98279.03
2022-08-26T07:50:50.488Z,98279.28
2022-08-26T07:51:55.751Z,98274.97
2022-08-26T07:53:02.250Z,98282.53
2022-08-26T07:54:05.928Z,98283.34
2022-08-26T07:55:10.458Z,98281.16
2022-08-26T07:56:14.607Z,98278.66
2022-08-26T07:57:19.066Z,98274.63
2022-08-26T07:58:22.340Z,98284.06
2022-08-26T07:59:27.007Z,98282.72
2022-08-26T08:00:32.917Z,98279.97
2022-08-26T08:01:37.848Z,98289.09
2022-08-26T08:02:44.790Z,98288.19
2022-08-26T08:03:51.726Z,98284.06
2022-08-26T08:04:57.018Z,98288.28
2022-08-26T08:06:01.558Z,98289.88
2022-08-26T08:07:05.936Z,98292.56
2022-08-26T08:08:27.879Z,98289.03
2022-08-26T08:09:33.474Z,98286.94
2022-08-26T08:10:38.328Z,98283.16
2022-08-26T08:11:43.447Z,98287.16
2022-08-26T08:12:47.957Z,98287.56
2022-08-26T08:13:56.771Z,98288.84
2022-08-26T08:14:59.975Z,98286.84
2022-08-26T08:16:05.240Z,98288.19
2022-08-26T08:17:08.631Z,98283.50
2022-08-26T08:18:15.350Z,98287.41
2022-08-26T08:19:19.804Z,98285.72
2022-08-26T08:20:25.850Z,98292.84
2022-08-26T08:21:31.846Z,98289.50
2022-08-26T08:22:35.665Z,98285.63
2022-08-26T08:23:41.126Z,98284.47
2022-08-26T08:24:44.567Z,98291.25
2022-08-26T08:25:49.430Z,98282.63
2022-08-26T08:26:56.132Z,98288.47
2022-08-26T08:27:59.368Z,98284.47
2022-08-26T08:29:03.547Z,98288.38
2022-08-26T08:30:09.862Z,98282.22
2022-08-26T08:31:38.542Z,98287.75
2022-08-26T08:32:45.830Z,98285.41
2022-08-26T08:33:49.108Z,98278.84
2022-08-26T08:34:56.315Z,98282.47
2022-08-26T08:35:59.749Z,98283.78
2022-08-26T08:37:10.087Z,98289.13
2022-08-26T08:38:14.820Z,98285.75
2022-08-26T08:39:17.877Z,98287.66
2022-08-26T08:40:25.249Z,98283.78
2022-08-26T08:41:43.781Z,98277.28
2022-08-26T08:43:57.296Z,98284.97
2022-08-26T08:45:04.715Z,98283.72
2022-08-26T08:46:13.039Z,98282.91
2022-08-26T08:47:20.678Z,98284.59
2022-08-26T08:48:28.101Z,98275.13
2022-08-26T08:49:32.430Z,98282.44
2022-08-26T08:50:39.271Z,98276.16
2022-08-26T08:51:48.450Z,98278.56
2022-08-26T08:53:00.551Z,98271.72
2022-08-26T08:54:04.908Z,98272.97
2022-08-26T08:55:11.896Z,98269.91
2022-08-26T08:56:24.308Z,98269.03
2022-08-26T08:57:35.718Z,98276.06
2022-08-26T08:58:49.008Z,98266.69
2022-08-26T09:00:02.113Z,98258.84
2022-08-26T09:01:07.899Z,98272.56
2022-08-26T09:02:20.186Z,98273.78
2022-08-26T09:03:36.305Z,98271.59
2022-08-26T09:05:07.991Z,98262.88
2022-08-26T09:06:19.118Z,98259.84
2022-08-26T09:07:35.905Z,98259.59
2022-08-26T09:08:41.799Z,98255.84
2022-08-26T09:09:47.929Z,98257.25
2022-08-26T09:10:54.807Z,98257.53
2022-08-26T09:11:59.177Z,98254.84
2022-08-26T09:13:05.259Z,98253.38
2022-08-26T09:14:09.849Z,98260.63
2022-08-26T09:15:18.136Z,98256.81
2022-08-26T09:16:26.864Z,98256.41
2022-08-26T09:17:38.501Z,98250.13
2022-08-26T09:18:55.926Z,98247.41
2022-08-26T09:20:10.985Z,98241.59
2022-08-26T09:21:15.833Z,98242.53
2022-08-26T09:22:32.523Z,98240.44
2022-08-26T09:23:41.762Z,98246.41
2022-08-26T09:24:50.188Z,98235.53
2022-08-26T09:25:56.591Z,98243.06
2022-08-26T09:27:03.953Z,98239.88
2022-08-26T09:28:15.327Z,98235.84
2022-08-26T09:29:25.992Z,98236.09
2022-08-26T09:30:33.231Z,98228.34
2022-08-26T09:31:39.360Z,98229.94
2022-08-26T09:32:55.968Z,98231.66
2022-08-26T09:34:09.688Z,98236.56
2022-08-26T09:35:27.117Z,98224.28
2022-08-26T09:36:39.474Z,98231.66
2022-08-26T09:38:58.736Z,98232.69
2022-08-26T09:40:18.852Z,98233.09
2022-08-26T09:41:27.282Z,98229.44
2022-08-26T09:42:32.968Z,98224.00
2022-08-26T09:43:36.088Z,98224.91
2022-08-26T09:44:57.931Z,98235.84
2022-08-26T09:46:13.462Z,98230.44
2022-08-26T09:47:22.945Z,98226.72
2022-08-26T09:48:29.576Z,98229.22
2022-08-26T09:49:36.548Z,98231.34
2022-08-26T09:50:53.045Z,98229.69
2022-08-26T09:52:15.008Z,98220.66
2022-08-26T09:53:28.495Z,98220.47
2022-08-26T09:54:32.487Z,98221.78
2022-08-26T09:55:42.204Z,98225.91
2022-08-26T09:56:46.658Z,98213.63
2022-08-26T09:57:52.328Z,98220.44
2022-08-26T09:58:58.321Z,98224.63
2022-08-26T10:00:01.696Z,98218.69
2022-08-26T10:01:18.520Z,98217.16
2022-08-26T10:02:47.843Z,98214.03
2022-08-26T10:03:53.949Z,98219.88
2022-08-26T10:04:58.549Z,98227.50
2022-08-26T10:06:23.110Z,98210.09
2022-08-26T10:07:40.588Z,98213.94
2022-08-26T10:08:47.748Z,98209.59
2022-08-26T10:09:51.797Z,98213.13
2022-08-26T10:10:58.607Z,98226.72
2022-08-26T10:12:05.576Z,98216.75
2022-08-26T10:13:14.464Z,98214.69
2022-08-26T10:14:25.108Z,98214.09
2022-08-26T10:15:29.808Z,98214.19
2022-08-26T10:16:44.613Z,98215.81
2022-08-26T10:17:52.485Z,98207.66
2022-08-26T10:19:00.901Z,98218.19
2022-08-26T10:20:16.803Z,98208.81
2022-08-26T10:21:31.774Z,98207.38
2022-08-26T10:22:39.630Z,98217.13
2022-08-26T10:23:46.499Z,98208.50
2022-08-26T10:24:55.264Z,98207.44
2022-08-26T10:26:08.440Z,98204.13
2022-08-26T10:27:23.704Z,98212.94
2022-08-26T10:28:34.102Z,98208.28
2022-08-26T10:29:40.307Z,98197.84
2022-08-26T10:30:48.876Z,98211.69
2022-08-26T10:31:58.838Z,98210.22
2022-08-26T10:33:09.048Z,98200.09
2022-08-26T10:34:14.518Z,98210.59
2022-08-26T10:35:19.796Z,98207.88
2022-08-26T10:37:10.843Z,98195.13
2022-08-26T10:38:12.357Z,98199.44
2022-08-26T10:39:23.056Z,98207.00
2022-08-26T10:40:29.665Z,98208.03
2022-08-26T10:41:39.497Z,98196.13
2022-08-26T10:42:47.841Z,98204.22
2022-08-26T10:43:54.136Z,98193.59
2022-08-26T10:45:11.797Z,98203.19
2022-08-26T10:46:20.665Z,98196.13
2022-08-26T10:47:26.917Z,98199.84
2022-08-26T10:48:37.296Z,98197.63
2022-08-26T10:49:42.228Z,98198.84
2022-08-26T10:50:47.702Z,98194.78
2022-08-26T10:51:59.057Z,98197.75
2022-08-26T10:53:08.772Z,98187.72
2022-08-26T10:54:17.245Z,98195.34
2022-08-26T10:55:25.650Z,98192.75
2022-08-26T10:56:41.077Z,98188.34
2022-08-26T10:57:51.183Z,98195.56
2022-08-26T10:59:01.326Z,98193.72
2022-08-26T11:00:31.320Z,98195.56
2022-08-26T11:01:50.875Z,98194.06
2022-08-26T11:03:00.942Z,98184.91
2022-08-26T11:04:09.289Z,98191.13
2022-08-26T11:05:18.437Z,98191.44
2022-08-26T11:06:24.872Z,98182.63
2022-08-26T11:07:39.445Z,98187.34
2022-08-26T11:08:47.819Z,98183.22
2022-08-26T11:09:50.926Z,98186.22
2022-08-26T11:10:58.027Z,98179.34
2022-08-26T11:12:10.217Z,98180.97
2022-08-26T11:13:15.213Z,98188.78
2022-08-26T11:14:53.283Z,98175.59
2022-08-26T11:16:01.168Z,98187.63
2022-08-26T11:17:05.699Z,98181.50
2022-08-26T11:18:12.052Z,98188.88
2022-08-26T11:20:00.233Z,98188.97
2022-08-26T11:21:47.687Z,98174.88
2022-08-26T11:22:56.096Z,98187.75
2022-08-26T11:24:02.674Z,98190.56
2022-08-26T11:25:14.873Z,98184.16
2022-08-26T11:26:36.119Z,98177.34
2022-08-26T11:28:04.598Z,98173.94
2022-08-26T11:29:13.498Z,98183.69
2022-08-26T11:30:47.287Z,98172.88
2022-08-26T11:31:57.358Z,98171.63
2022-08-26T11:33:00.609Z,98179.91
2022-08-26T11:34:08.732Z,98168.09
2022-08-26T11:35:52.145Z,98166.50
2022-08-26T11:36:58.177Z,98176.06
2022-08-26T11:38:04.885Z,98176.06
2022-08-26T11:39:18.734Z,98164.63
2022-08-26T11:40:26.777Z,98165.47
2022-08-26T11:41:32.151Z,98158.50
2022-08-26T11:42:39.807Z,98161.06
2022-08-26T11:43:43.658Z,98153.09
2022-08-26T11:44:49.334Z,98157.72
2022-08-26T11:46:00.775Z,98155.16
2022-08-26T11:47:05.980Z,98156.47
2022-08-26T11:48:18.846Z,98155.97
2022-08-26T11:49:23.255Z,98143.97
2022-08-26T11:50:29.794Z,98148.28
2022-08-26T11:51:40.093Z,98151.47
2022-08-26T11:52:55.670Z,98159.03
2022-08-26T11:54:11.498Z,98158.09
2022-08-26T11:55:17.358Z,98150.09
2022-08-26T11:56:28.764Z,98145.44
2022-08-26T11:57:45.670Z,98152.66
2022-08-26T11:58:50.290Z,98151.69
2022-08-26T11:59:53.899Z,98148.16
2022-08-26T12:01:00.926Z,98145.59
2022-08-26T12:02:13.837Z,98138.88
2022-08-26T12:03:20.534Z,98150.59
2022-08-26T12:04:30.008Z,98151.22
2022-08-26T12:05:38.196Z,98148.03
2022-08-26T12:06:49.652Z,98144.34
2022-08-26T12:07:54.947Z,98143.38
2022-08-26T12:09:01.936Z,98142.56
2022-08-26T12:10:07.669Z,98129.56
2022-08-26T12:11:21.658Z,98133.59
2022-08-26T12:12:34.154Z,98136.16
2022-08-26T12:13:39.461Z,98130.53
2022-08-26T12:14:44.522Z,98133.44
2022-08-26T12:15:53.775Z,98126.53
2022-08-26T12:17:10.580Z,98135.09
2022-08-26T12:18:22.741Z,98124.22
2022-08-26T12:19:35.266Z,98121.66
2022-08-26T12:20:49.089Z,98125.78
2022-08-26T12:21:57.429Z,98119.50
2022-08-26T12:23:01.159Z,98123.03
2022-08-26T12:24:06.270Z,98118.84
2022-08-26T12:25:10.158Z,98121.91
2022-08-26T12:26:22.696Z,98123.41
2022-08-26T12:27:28.328Z,98119.72
2022-08-26T12:28:33.487Z,98120.50
2022-08-26T12:29:37.899Z,98122.09
2022-08-26T12:31:01.027Z,98117.44
2022-08-26T12:32:09.977Z,98112.66
2022-08-26T12:33:22.840Z,98108.53
2022-08-26T12:34:28.348Z,98111.69
2022-08-26T12:35:33.836Z,98121.81
2022-08-26T12:36:42.507Z,98109.03
2022-08-26T12:37:50.816Z,98105.00
2022-08-26T12:38:58.247Z,98108.03
2022-08-26T12:40:35.676Z,98103.16
2022-08-26T12:41:41.800Z,98107.34
2022-08-26T12:42:46.018Z,98114.06
2022-08-26T12:43:49.195Z,98111.19
2022-08-26T12:45:01.020Z,98107.84
2022-08-26T12:46:06.691Z,98108.84
2022-08-26T12:47:14.278Z,98117.19
2022-08-26T12:48:28.762Z,98108.75
2022-08-26T12:49:32.492Z,98105.06
2022-08-26T12:50:38.607Z,98109.22
2022-08-26T12:51:43.272Z,98110.19
2022-08-26T12:52:59.609Z,98106.94
2022-08-26T12:54:07.138Z,98109.50
2022-08-26T12:55:21.309Z,98109.81
2022-08-26T12:56:33.002Z,98106.44
2022-08-26T12:57:37.586Z,98104.50
2022-08-26T12:58:42.021Z,98105.44
2022-08-26T12:59:45.307Z,98107.38
2022-08-26T13:00:50.557Z,98110.41
2022-08-26T13:01:55.851Z,98105.16
2022-08-26T13:03:00.927Z,98109.66
2022-08-26T13:04:06.893Z,98103.59
2022-08-26T13:05:21.339Z,98101.19
2022-08-26T13:06:31.580Z,98101.03
2022-08-26T13:07:35.451Z,98096.72
2022-08-26T13:08:44.333Z,98097.47
2022-08-26T13:09:47.484Z,98105.97
2022-08-26T13:11:03.567Z,98099.56
2022-08-26T13:12:08.312Z,98097.47
2022-08-26T13:13:11.451Z,98093.28
2022-08-26T13:14:23.779Z,98087.50
2022-08-26T13:15:27.446Z,98096.44
2022-08-26T13:16:32.071Z,98086.00
2022-08-26T13:17:36.235Z,98083.47
2022-08-26T13:18:40.662Z,98096.94
2022-08-26T13:19:45.106Z,98090.84
2022-08-26T13:20:49.476Z,98086.88
2022-08-26T13:21:55.581Z,98083.81
2022-08-26T13:22:59.709Z,98082.69
2022-08-26T13:24:09.286Z,98079.97
2022-08-26T13:25:12.568Z,98086.69
2022-08-26T13:26:16.987Z,98082.69
2022-08-26T13:27:22.175Z,98082.72
2022-08-26T13:28:26.474Z,98072.50
2022-08-26T13:29:30.939Z,98078.78
2022-08-26T13:30:34.352Z,98074.13
2022-08-26T13:31:41.270Z,98077.47
2022-08-26T13:32:45.622Z,98068.06
2022-08-26T13:33:49.912Z,98068.97
2022-08-26T13:34:54.955Z,98068.78
2022-08-26T13:35:59.327Z,98071.50
2022-08-26T13:37:02.406Z,98071.56
2022-08-26T13:38:09.146Z,98075.91